createdAt,value
2023-04-15T00:01:36.930Z,958.1
2023-04-15T00:06:20.258Z,958.1
2023-04-15T00:11:03.478Z,958
2023-04-15T00:20:30.019Z,957.9
2023-04-15T00:25:13.348Z,957.9
2023-04-15T00:29:56.575Z,957.8
2023-04-15T00:39:23.117Z,957.7
2023-04-15T00:44:05.927Z,957.7
2023-04-15T00:48:49.281Z,957.7
2023-04-15T00:53:32.498Z,957.6
2023-04-15T00:58:15.787Z,957.6
2023-04-15T01:02:59.006Z,957.5
2023-04-15T01:07:42.221Z,957.5
2023-04-15T01:12:25.557Z,957.5
2023-04-15T01:17:08.776Z,957.5
2023-04-15T01:21:52.085Z,957.4
2023-04-15T01:26:35.352Z,957.4
2023-04-15T01:31:18.625Z,957.4
2023-04-15T01:36:01.848Z,957.4
2023-04-15T01:40:45.174Z,957.4
2023-04-15T01:45:28.404Z,957.3
2023-04-15T01:50:11.771Z,957.3
2023-04-15T01:54:54.951Z,957.3
2023-04-15T01:59:38.271Z,957.3
2023-04-15T02:04:21.493Z,957.4
2023-04-15T02:09:04.710Z,957.4
2023-04-15T02:13:48.024Z,957.5
2023-04-15T02:18:31.056Z,957.4
2023-04-15T02:23:14.267Z,957.5
2023-04-15T02:27:57.619Z,957.5
2023-04-15T02:37:24.029Z,957.5
2023-04-15T02:42:07.356Z,957.5
2023-04-15T02:46:50.173Z,957.5
2023-04-15T02:51:33.499Z,957.4
2023-04-15T02:56:16.707Z,957.4
2023-04-15T03:00:59.929Z,957.4
2023-04-15T03:05:43.248Z,957.4
2023-04-15T03:10:26.471Z,957.5
2023-04-15T03:15:09.796Z,957.5
2023-04-15T03:19:53.131Z,957.4
2023-04-15T03:24:36.329Z,957.4
2023-04-15T03:29:19.554Z,957.4
2023-04-15T03:34:02.887Z,957.5
2023-04-15T03:38:46.121Z,957.5
2023-04-15T03:43:29.436Z,957.4
2023-04-15T03:48:12.634Z,957.4
2023-04-15T03:52:55.864Z,957.4
2023-04-15T03:57:39.196Z,957.4
2023-04-15T04:02:22.197Z,957.4
2023-04-15T04:07:05.419Z,957.4
2023-04-15T04:11:48.740Z,957.4
2023-04-15T04:16:31.556Z,957.4
2023-04-15T04:21:14.783Z,957.4
2023-04-15T04:25:58.104Z,957.4
2023-04-15T04:35:24.655Z,957.5
2023-04-15T04:40:07.870Z,957.5
2023-04-15T04:44:51.180Z,957.5
2023-04-15T04:49:34.402Z,957.5
2023-04-15T04:54:17.721Z,957.6
2023-04-15T04:59:00.948Z,957.6
2023-04-15T05:03:44.189Z,957.6
2023-04-15T05:08:27.482Z,957.7
2023-04-15T05:13:10.704Z,957.6
2023-04-15T05:17:54.089Z,957.6
2023-04-15T05:22:37.274Z,957.7
2023-04-15T05:27:20.077Z,957.7
2023-04-15T05:32:03.419Z,957.7
2023-04-15T05:36:46.608Z,957.8
2023-04-15T05:41:29.937Z,957.8
2023-04-15T05:46:13.155Z,957.8
2023-04-15T05:50:56.180Z,957.8
2023-04-15T05:55:39.497Z,957.8
2023-04-15T06:00:22.486Z,957.9
2023-04-15T06:05:05.588Z,957.9
2023-04-15T06:09:48.930Z,957.9
2023-04-15T06:14:31.182Z,957.9
2023-04-15T06:19:13.273Z,957.9
2023-04-15T06:23:55.225Z,957.9
2023-04-15T06:33:20.031Z,957.9
2023-04-15T06:38:02.678Z,957.9
2023-04-15T06:42:45.528Z,957.9
2023-04-15T06:47:28.216Z,958
2023-04-15T06:52:10.939Z,957.9
2023-04-15T06:56:53.653Z,957.9
2023-04-15T07:01:36.374Z,957.9
2023-04-15T07:06:19.187Z,957.9
2023-04-15T07:11:01.998Z,957.9
2023-04-15T07:15:44.534Z,957.9
2023-04-15T07:20:26.720Z,957.9
2023-04-15T07:25:09.453Z,957.9
2023-04-15T07:34:34.312Z,957.8
2023-04-15T07:43:59.075Z,957.8
2023-04-15T07:48:41.777Z,957.8
2023-04-15T07:53:24.446Z,957.8
2023-04-15T07:58:07.016Z,957.9
2023-04-15T08:02:49.743Z,957.9
2023-04-15T08:07:32.658Z,957.9
2023-04-15T08:12:15.274Z,957.8
2023-04-15T08:16:58.167Z,957.9
2023-04-15T08:21:40.161Z,958
2023-04-15T08:26:22.098Z,957.9
2023-04-15T08:31:04.212Z,958
2023-04-15T08:35:46.211Z,958.1
2023-04-15T08:40:28.163Z,958.2
2023-04-15T08:45:10.105Z,958.2
2023-04-15T08:54:35.006Z,958.2
2023-04-15T08:59:17.025Z,958.2
2023-04-15T09:03:58.816Z,958.1
2023-04-15T09:08:40.302Z,958.1
2023-04-15T09:13:22.821Z,958
2023-04-15T09:18:05.294Z,958.1
2023-04-15T09:22:47.822Z,958.3
2023-04-15T09:27:30.283Z,958.3
2023-04-15T09:32:12.734Z,958.3
2023-04-15T09:36:55.264Z,958.3
2023-04-15T09:46:20.272Z,958.4
2023-04-15T09:51:02.833Z,958.5
2023-04-15T09:55:45.263Z,958.5
2023-04-15T10:00:27.630Z,958.6
2023-04-15T10:09:52.574Z,958.5
2023-04-15T10:14:35.188Z,958.5
2023-04-15T10:19:16.696Z,958.5
2023-04-15T10:23:59.344Z,958.5
2023-04-15T10:33:23.336Z,958.5
2023-04-15T10:38:05.798Z,958.6
2023-04-15T10:42:48.435Z,958.6
2023-04-15T10:47:30.852Z,958.6
2023-04-15T10:52:13.298Z,958.7
2023-04-15T10:56:55.801Z,958.7
2023-04-15T11:01:38.167Z,958.7
2023-04-15T11:06:20.695Z,958.7
2023-04-15T11:11:03.230Z,958.7
2023-04-15T11:20:28.155Z,958.5
2023-04-15T11:25:10.754Z,958.5
2023-04-15T11:29:52.459Z,958.6
2023-04-15T11:34:34.712Z,958.7
2023-04-15T11:39:17.233Z,958.8
2023-04-15T11:43:59.746Z,958.8
2023-04-15T11:48:42.169Z,958.8
2023-04-15T11:53:24.698Z,958.7
2023-04-15T11:58:07.116Z,958.8
2023-04-15T12:07:32.153Z,959
2023-04-15T12:12:14.570Z,959.1
2023-04-15T12:16:56.282Z,959.1
2023-04-15T12:21:37.810Z,959.2
2023-04-15T12:26:20.320Z,959.2
2023-04-15T12:31:02.845Z,959.3
2023-04-15T12:35:45.274Z,959.4
2023-04-15T12:40:27.791Z,959.5
2023-04-15T12:45:10.308Z,959.6
2023-04-15T12:54:35.252Z,959.6
2023-04-15T12:59:17.770Z,959.6
2023-04-15T13:04:00.200Z,959.6
2023-04-15T13:08:42.715Z,959.6
2023-04-15T13:13:25.228Z,959.6
2023-04-15T13:18:07.646Z,959.7
2023-04-15T13:22:49.265Z,959.7
2023-04-15T13:27:31.786Z,959.8
2023-04-15T13:32:14.302Z,959.8
2023-04-15T13:41:39.242Z,959.9
2023-04-15T13:46:21.665Z,960
2023-04-15T13:51:04.178Z,960.1
2023-04-15T13:55:46.698Z,960.1
2023-04-15T14:00:29.121Z,960.1
2023-04-15T14:05:11.652Z,960.1
2023-04-15T14:09:54.164Z,960.2
2023-04-15T14:19:19.094Z,960.3
2023-04-15T14:28:43.234Z,960.3
2023-04-15T14:33:25.655Z,960.4
2023-04-15T14:38:08.268Z,960.4
2023-04-15T14:42:50.871Z,960.5
2023-04-15T14:47:33.201Z,960.6
2023-04-15T14:52:15.600Z,960.7
2023-04-15T14:56:58.115Z,960.6
2023-04-15T15:01:40.637Z,960.7
2023-04-15T15:06:23.058Z,960.8
2023-04-15T15:15:48.089Z,960.9
2023-04-15T15:20:30.514Z,961
2023-04-15T15:25:13.035Z,961
2023-04-15T15:29:55.547Z,961
2023-04-15T15:34:37.979Z,961.1
2023-04-15T15:39:20.498Z,961.1
2023-04-15T15:44:03.013Z,961.2
2023-04-15T15:48:45.432Z,961.3
2023-04-15T15:53:27.956Z,961.3
2023-04-15T16:02:52.897Z,961.4
2023-04-15T16:07:35.411Z,961.5
2023-04-15T16:12:17.838Z,961.5
2023-04-15T16:17:00.358Z,961.6
2023-04-15T16:21:42.872Z,961.7
2023-04-15T16:26:25.295Z,961.7
2023-04-15T16:31:07.822Z,961.7
2023-04-15T16:35:50.342Z,961.8
2023-04-15T16:40:32.756Z,961.8
2023-04-15T16:54:40.211Z,962.1
2023-04-15T16:59:22.740Z,962.2
2023-04-15T17:04:05.253Z,962.2
2023-04-15T17:08:47.669Z,962.3
2023-04-15T17:13:30.194Z,962.3
2023-04-15T17:18:12.908Z,962.4
2023-04-15T17:22:55.631Z,962.4
2023-04-15T17:27:38.344Z,962.5
2023-04-15T17:32:21.180Z,962.6
2023-04-15T17:41:46.625Z,962.6
2023-04-15T17:46:29.344Z,962.8
2023-04-15T17:51:11.350Z,962.8
2023-04-15T17:55:54.074Z,962.8
2023-04-15T18:00:36.791Z,963
2023-04-15T18:05:19.511Z,963
2023-04-15T18:10:02.235Z,963
2023-04-15T18:19:27.784Z,963.2
2023-04-15T18:24:10.496Z,963.3
2023-04-15T18:28:53.225Z,963.4
2023-04-15T18:33:35.941Z,963.5
2023-04-15T18:38:18.669Z,963.5
2023-04-15T18:43:01.378Z,963.6
2023-04-15T18:52:26.824Z,963.7
2023-04-15T18:57:08.828Z,963.8
2023-04-15T19:01:51.640Z,963.8
2023-04-15T19:06:34.361Z,963.9
2023-04-15T19:11:17.087Z,963.9
2023-04-15T19:15:59.805Z,964
2023-04-15T19:20:42.525Z,964.1
2023-04-15T19:25:25.251Z,964.1
2023-04-15T19:30:07.980Z,964.1
2023-04-15T19:34:50.687Z,964.2
2023-04-15T19:39:33.505Z,964.3
2023-04-15T19:44:16.233Z,964.3
2023-04-15T19:48:58.953Z,964.3
2023-04-15T19:53:41.672Z,964.3
2023-04-15T20:03:06.422Z,964.3
2023-04-15T20:07:49.133Z,964.4
2023-04-15T20:12:31.871Z,964.4
2023-04-15T20:17:13.897Z,964.4
2023-04-15T20:21:56.589Z,964.5
2023-04-15T20:26:39.420Z,964.5
2023-04-15T20:31:22.136Z,964.5
2023-04-15T20:36:04.871Z,964.5
2023-04-15T20:40:46.986Z,964.6
2023-04-15T20:45:29.595Z,964.7
2023-04-15T20:50:12.319Z,964.8
2023-04-15T20:54:55.045Z,964.8
2023-04-15T20:59:37.857Z,964.7
2023-04-15T21:04:19.782Z,964.8
2023-04-15T21:13:45.319Z,964.9
2023-04-15T21:18:28.040Z,964.9
2023-04-15T21:23:10.763Z,964.9
2023-04-15T21:27:53.476Z,965
2023-04-15T21:32:36.203Z,965
2023-04-15T21:37:18.928Z,965
2023-04-15T21:42:01.638Z,965.2
2023-04-15T21:46:44.360Z,965.2
2023-04-15T21:51:27.177Z,965.2
2023-04-15T21:56:09.937Z,965.3
2023-04-15T22:00:52.634Z,965.3
2023-04-15T22:05:34.637Z,965.4
2023-04-15T22:10:17.362Z,965.4
2023-04-15T22:15:00.085Z,965.5
2023-04-15T22:24:25.540Z,965.5
2023-04-15T22:29:07.339Z,965.6
2023-04-15T22:33:48.957Z,965.6
2023-04-15T22:38:31.374Z,965.7
2023-04-15T22:43:13.898Z,965.8
2023-04-15T22:47:56.432Z,965.8
2023-04-15T22:52:38.839Z,965.9
2023-04-15T22:57:21.358Z,965.9
2023-04-15T23:02:03.884Z,965.9
2023-04-15T23:06:46.297Z,965.9
2023-04-15T23:16:11.337Z,966
2023-04-15T23:20:53.772Z,966
2023-04-15T23:25:36.277Z,966
2023-04-15T23:30:18.806Z,966.1
2023-04-15T23:35:01.220Z,966.1
2023-04-15T23:39:42.836Z,966.1
2023-04-15T23:44:25.362Z,966.1
2023-04-15T23:49:07.790Z,966.1
2023-04-15T23:53:50.300Z,966.1
